Masons Island, Connecticut
Current Conditions -  °F | °C
As of 9:56 AM on Saturday 25 Oct 2014 (Local Time) from KGON Reporting Station
Clear Clear  
Wind Chill: 52°   Ceiling: Unl
Heat Index: 52°   Visibility: 10mi
Dew Point: 43°   Wind: 6mph
Humidity: 71%   Direction: 280°W
Pressure: 29.79"   Gusts: NA
Location:  41.3658°N, 71.9769°W
Report Text: KGON 251356Z 28005KT 10SM CLR 11/06 A2979 RMK AO2 SLP087 T01110061
Loading
Personal Weather Stations






























Interactive Weather Map
Tropical Storm Tracking
New forecast layout! Learn more

10-Day Weather Forecast

Advertisements
Track Severe Weather on mobile